^^

Meteo Aereoporti Centro-Italia

 

 
LIRZ - Perugia S.Egidio (208 m.)
Dati ricevuti: 29/11/2022 01:20
Molto nuvoloso
Molto nuvoloso
 Vento da ENE
Vento: ENE 6 km/h
TEMPERATURA: 7°C
P.to di Rugiada: 7°C
Umidità: 100%
Pressione: 1014 hPa
Nuvole: Molto nuvoloso
Visibilità: 10 km
Dettagli Nuvole: Molto nuvoloso 2438 m
2022/11/29 00:20 LIRZ 290020Z AUTO 07003KT 9999 BKN080/// 07/07 Q1014
 
LIPY - Ancona Falconara (12 m.)
Dati ricevuti: 29/11/2022 01:20
Coperto
Coperto
 Vento da SSE
Vento: SSE 4 km/h
TEMPERATURA: 8°C
P.to di Rugiada: 7°C
Umidità: 93%
Pressione: 1015 hPa
Nuvole: Coperto
Visibilità: 10 km
Dettagli Nuvole: Molto nuvoloso 1219 m
Coperto 1829 m
2022/11/29 00:20 LIPY 290020Z AUTO 15002KT 9999 BKN040/// OVC060/// 08/07 Q1015
 
LIPR - Rimini Miramare (12 m.)
Dati ricevuti: 29/11/2022 01:20
Pioggia debole, Foschia, Coperto
Pioggia debole, Foschia, Coperto
 Vento da WNW
Vento: WNW 15 km/h
TEMPERATURA: 7°C
Raffreddamento da Vento: 4°C
P.to di Rugiada: 6°C
Umidità: 93%
Pressione: 1015 hPa
Condizioni generali: Pioggia debole, Foschia
Nuvole: Coperto
Visibilità: 3 km
Dettagli Nuvole: Qualche nuvola 701 m
Molto nuvoloso 1676 m
Coperto 3048 m
2022/11/29 00:20 LIPR 290020Z AUTO 30008KT 2900 -RA BR FEW023/// BKN055/// OVC100/// 07/06 Q1015
 
LIRF - Roma Fiumicino (2 m.)
Dati ricevuti: 29/11/2022 01:20
Pioggia debole, Poco nuvoloso
Pioggia debole, Poco nuvoloso
 Vento da N
Vento: N 6 km/h
TEMPERATURA: 10°C
P.to di Rugiada: 8°C
Umidità: 88%
Pressione: 1013 hPa
Condizioni generali: Pioggia debole
Nuvole: Poco nuvoloso
Visibilità: 10 km
Dettagli Nuvole: Poco nuvoloso 1372 m
2022/11/29 00:20 LIRF 290020Z 01003KT 340V040 9999 -RA SCT045 10/08 Q1013 NOSIG
 
LIRA - Roma Ciampino (129 m.)
Dati ricevuti: 29/11/2022 01:20
Sereno
Sereno
 Vento da direzione variabile
Vento: direzione variabile 2 km/h
TEMPERATURA: 10°C
P.to di Rugiada: 6°C
Umidità: 76%
Pressione: 1013 hPa
Condizioni generali: Sereno
Visibilità: oltre 10 km
2022/11/29 00:20 LIRA 290020Z VRB01KT CAVOK 10/06 Q1013
 
LIRU - Roma Urbe (17 m.)
Dati ricevuti: 28/11/2022 16:50
Dati non aggiornati
Poco nuvoloso
Poco nuvoloso
 Vento da direzione variabile
Vento: direzione variabile 2 km/h
TEMPERATURA: 12°C
P.to di Rugiada: 8°C
Umidità: 77%
Pressione: 1015 hPa
Nuvole: Poco nuvoloso
Visibilità: 10 km
Dettagli Nuvole: Poco nuvoloso 1219 m
2022/11/28 15:50 LIRU 281550Z VRB01KT 9999 SCT040 12/08 Q1015
 
LIVF - Frontone (570 m.)
Dati ricevuti: 29/11/2022 00:55
Qualche nuvola
Qualche nuvola
 Vento da SW
Vento: SW 7 km/h
TEMPERATURA: 6°C
Raffreddamento da Vento: 4°C
P.to di Rugiada: 5°C
Umidità: 93%
Pressione: 1014 hPa
Nuvole: Qualche nuvola
Visibilità: 10 km
Dettagli Nuvole: Qualche nuvola 518 m
2022/11/28 23:55 LIVF 282355Z 23004KT 9999 FEW017 06/05 Q1014
 
LIRQ - Firenze Peretola (40 m.)
Dati ricevuti: 29/11/2022 01:20
Molto nuvoloso
Molto nuvoloso
 Vento da direzione variabile
Vento: direzione variabile 2 km/h
TEMPERATURA: 7°C
P.to di Rugiada: 5°C
Umidità: 87%
Pressione: 1014 hPa
Nuvole: Molto nuvoloso
Visibilità: 10 km
Dettagli Nuvole: Poco nuvoloso 2042 m
Molto nuvoloso 3658 m
2022/11/29 00:20 LIRQ 290020Z AUTO VRB01KT 9999 SCT067/// BKN120/// 07/05 Q1014
 
LIBP - Pescara (10 m.)
Dati ricevuti: 29/11/2022 01:20
Coperto
Coperto
 Vento da WSW
Vento: WSW 7 km/h
TEMPERATURA: 7°C
Raffreddamento da Vento: 6°C
P.to di Rugiada: 6°C
Umidità: 93%
Pressione: 1015 hPa
Nuvole: Coperto
Visibilità: 10 km
Dettagli Nuvole: Coperto 3962 m
2022/11/29 00:20 LIBP 290020Z AUTO 24004KT 9999 OVC130/// 07/06 Q1015
 
LIRV - Viterbo (300 m.)
Dati ricevuti: 28/11/2022 18:55
Dati non aggiornati
Molto nuvoloso
Molto nuvoloso
 Vento da NE
Vento: NE 15 km/h
TEMPERATURA: 7°C
Raffreddamento da Vento: 4°C
P.to di Rugiada: 5°C
Umidità: 87%
Pressione: 1015 hPa
Nuvole: Molto nuvoloso
Visibilità: 10 km
Dettagli Nuvole: Poco nuvoloso 549 m
Molto nuvoloso 732 m
2022/11/28 17:55 LIRV 281755Z 04008KT 9999 SCT018 BKN024 07/05 Q1015
 
LIQN - Rieti (389 m.)
Dati ricevuti: 28/11/2022 16:50
Dati non aggiornati
Sereno
Sereno
 Vento da direzione variabile
Vento: direzione variabile 0 km/h
TEMPERATURA: 9°C
P.to di Rugiada: 6°C
Umidità: 82%
Pressione: 1015 hPa
Condizioni generali: Sereno
Visibilità: oltre 10 km
2022/11/28 15:50 LIQN 281550Z /////KT CAVOK 09/06 Q1015
 
LIRG - Guidonia -RM- (88 m.)
Dati ricevuti: 28/11/2022 18:55
Dati non aggiornati
Poco nuvoloso
Poco nuvoloso
 Vento da direzione variabile
Vento: direzione variabile 4 km/h
TEMPERATURA: 10°C
P.to di Rugiada: 8°C
Umidità: 88%
Pressione: 1014 hPa
Nuvole: Poco nuvoloso
Visibilità: 10 km
Dettagli Nuvole: Poco nuvoloso 1219 m
2022/11/28 17:55 LIRG 281755Z VRB02KT 9999 SCT040 10/08 Q1014
 
LIRK - Terminillo -RI-(1874 m.)
Dati ricevuti: 29/11/2022 00:55

 Vento da direzione variabile
Vento: direzione variabile 0 km/h
2022/11/28 23:55 LIRK 282355Z AUTO /////KT //// ///// Q////
 
LIPK - Forlì (27 m.)
Dati ricevuti: 28/11/2022 22:50
Dati non aggiornati
Pioggia debole, Poco nuvoloso
Pioggia debole, Poco nuvoloso
 Vento da direzione variabile
Vento: direzione variabile 2 km/h
TEMPERATURA: 6°C
P.to di Rugiada: 3°C
Umidità: 81%
Pressione: 1017 hPa
Condizioni generali: Pioggia debole
Nuvole: Poco nuvoloso
Visibilità: 8 km
Dettagli Nuvole: Poco nuvoloso 914 m
2022/11/28 21:50 LIPK 282150Z VRB01KT 8000 -RA SCT030 06/03 Q1017
 
LIRS - Grosseto (5 m.)
Dati ricevuti: 29/11/2022 00:55
Qualche nuvola
Qualche nuvola
 Vento da ENE
Vento: ENE 11 km/h
TEMPERATURA: 8°C
Raffreddamento da Vento: 6°C
P.to di Rugiada: 5°C
Umidità: 82%
Pressione: 1014 hPa
Nuvole: Qualche nuvola
Visibilità: 10 km
Dettagli Nuvole: Qualche nuvola 762 m
2022/11/28 23:55 LIRS 282355Z 06006KT 9999 FEW025 08/05 Q1014
 
LIRP - Pisa S.Giusto (2 m.)
Dati ricevuti: 29/11/2022 01:15
Qualche nuvola
Qualche nuvola
 Vento da ESE
Vento: ESE 7 km/h
TEMPERATURA: 7°C
Raffreddamento da Vento: 6°C
P.to di Rugiada: 6°C
Umidità: 93%
Pressione: 1014 hPa
Nuvole: Qualche nuvola
Visibilità: 10 km
Dettagli Nuvole: Qualche nuvola 1067 m
2022/11/29 00:15 LIRP 290015Z 12004KT 9999 FEW035 07/06 Q1014 NOSIG